sensor_id;sensor_type;location;lat;lon;timestamp;P1;durP1;ratioP1;P2;durP2;ratioP2
74963;SDS011;63521;51.900;4.748;2022-12-07T00:02:14;1.17;;;0.98;;
74963;SDS011;63521;51.900;4.748;2022-12-07T00:04:39;2.28;;;1.00;;
74963;SDS011;63521;51.900;4.748;2022-12-07T00:07:04;1.48;;;0.90;;
74963;SDS011;63521;51.900;4.748;2022-12-07T00:09:30;1.70;;;1.20;;
74963;SDS011;63521;51.900;4.748;2022-12-07T00:11:55;2.00;;;0.95;;
74963;SDS011;63521;51.900;4.748;2022-12-07T00:14:21;1.88;;;0.98;;
74963;SDS011;63521;51.900;4.748;2022-12-07T00:16:48;1.75;;;1.08;;
74963;SDS011;63521;51.900;4.748;2022-12-07T00:19:15;1.25;;;0.88;;
74963;SDS011;63521;51.900;4.748;2022-12-07T00:21:40;1.85;;;1.08;;
74963;SDS011;63521;51.900;4.748;2022-12-07T00:24:06;1.00;;;0.93;;
74963;SDS011;63521;51.900;4.748;2022-12-07T00:26:33;2.40;;;0.88;;
74963;SDS011;63521;51.900;4.748;2022-12-07T00:29:00;1.30;;;1.00;;
74963;SDS011;63521;51.900;4.748;2022-12-07T00:31:34;1.23;;;0.80;;
74963;SDS011;63521;51.900;4.748;2022-12-07T00:34:03;0.98;;;0.90;;
74963;SDS011;63521;51.900;4.748;2022-12-07T00:36:32;1.80;;;1.00;;
74963;SDS011;63521;51.900;4.748;2022-12-07T00:38:58;1.45;;;0.68;;
74963;SDS011;63521;51.900;4.748;2022-12-07T00:41:25;1.90;;;1.00;;
74963;SDS011;63521;51.900;4.748;2022-12-07T00:43:51;2.03;;;1.30;;
74963;SDS011;63521;51.900;4.748;2022-12-07T00:46:18;0.85;;;0.70;;
74963;SDS011;63521;51.900;4.748;2022-12-07T00:48:45;1.67;;;1.30;;
74963;SDS011;63521;51.900;4.748;2022-12-07T00:51:11;2.28;;;1.15;;
74963;SDS011;63521;51.900;4.748;2022-12-07T00:53:37;1.92;;;1.05;;
74963;SDS011;63521;51.900;4.748;2022-12-07T00:56:10;1.45;;;1.00;;
74963;SDS011;63521;51.900;4.748;2022-12-07T00:58:37;1.30;;;0.90;;
74963;SDS011;63521;51.900;4.748;2022-12-07T01:01:03;1.83;;;0.80;;
74963;SDS011;63521;51.900;4.748;2022-12-07T01:03:29;1.60;;;1.10;;
74963;SDS011;63521;51.900;4.748;2022-12-07T01:05:55;1.83;;;0.90;;
74963;SDS011;63521;51.900;4.748;2022-12-07T01:08:22;0.55;;;0.55;;
74963;SDS011;63521;51.900;4.748;2022-12-07T01:10:48;0.75;;;0.73;;
74963;SDS011;63521;51.900;4.748;2022-12-07T01:13:14;1.27;;;0.85;;
74963;SDS011;63521;51.900;4.748;2022-12-07T01:15:43;1.13;;;0.75;;
74963;SDS011;63521;51.900;4.748;2022-12-07T01:18:09;1.50;;;0.82;;
74963;SDS011;63521;51.900;4.748;2022-12-07T01:20:35;0.80;;;0.80;;
74963;SDS011;63521;51.900;4.748;2022-12-07T01:23:01;1.80;;;0.93;;
74963;SDS011;63521;51.900;4.748;2022-12-07T01:25:26;1.40;;;0.57;;
74963;SDS011;63521;51.900;4.748;2022-12-07T01:27:52;1.20;;;0.70;;
74963;SDS011;63521;51.900;4.748;2022-12-07T01:30:17;2.72;;;0.77;;
74963;SDS011;63521;51.900;4.748;2022-12-07T01:32:42;1.23;;;0.85;;
74963;SDS011;63521;51.900;4.748;2022-12-07T01:35:08;1.77;;;0.90;;
74963;SDS011;63521;51.900;4.748;2022-12-07T01:37:34;2.10;;;0.70;;
74963;SDS011;63521;51.900;4.748;2022-12-07T01:40:03;1.52;;;0.98;;
74963;SDS011;63521;51.900;4.748;2022-12-07T01:42:30;1.13;;;0.68;;
74963;SDS011;63521;51.900;4.748;2022-12-07T01:47:43;0.70;;;0.70;;
74963;SDS011;63521;51.900;4.748;2022-12-07T01:50:17;0.60;;;0.52;;
74963;SDS011;63521;51.900;4.748;2022-12-07T01:52:43;1.08;;;0.75;;
74963;SDS011;63521;51.900;4.748;2022-12-07T01:55:11;1.65;;;0.75;;
74963;SDS011;63521;51.900;4.748;2022-12-07T01:57:39;0.82;;;0.73;;
74963;SDS011;63521;51.900;4.748;2022-12-07T02:00:05;1.23;;;0.90;;
74963;SDS011;63521;51.900;4.748;2022-12-07T02:02:38;0.63;;;0.60;;
74963;SDS011;63521;51.900;4.748;2022-12-07T02:05:06;1.38;;;1.00;;
74963;SDS011;63521;51.900;4.748;2022-12-07T02:07:32;1.52;;;0.70;;
74963;SDS011;63521;51.900;4.748;2022-12-07T02:12:46;1.65;;;0.82;;
74963;SDS011;63521;51.900;4.748;2022-12-07T02:15:15;0.60;;;0.50;;
74963;SDS011;63521;51.900;4.748;2022-12-07T02:17:47;1.60;;;0.50;;
74963;SDS011;63521;51.900;4.748;2022-12-07T02:20:38;0.65;;;0.63;;
74963;SDS011;63521;51.900;4.748;2022-12-07T02:23:16;1.42;;;0.50;;
74963;SDS011;63521;51.900;4.748;2022-12-07T02:25:54;1.50;;;0.70;;
74963;SDS011;63521;51.900;4.748;2022-12-07T02:28:35;0.85;;;0.55;;
74963;SDS011;63521;51.900;4.748;2022-12-07T02:31:12;1.80;;;0.77;;
74963;SDS011;63521;51.900;4.748;2022-12-07T02:33:41;0.95;;;0.60;;
74963;SDS011;63521;51.900;4.748;2022-12-07T02:36:12;1.15;;;0.70;;
74963;SDS011;63521;51.900;4.748;2022-12-07T02:44:06;1.77;;;0.60;;
74963;SDS011;63521;51.900;4.748;2022-12-07T02:46:34;0.70;;;0.63;;
74963;SDS011;63521;51.900;4.748;2022-12-07T02:51:49;1.00;;;0.52;;
74963;SDS011;63521;51.900;4.748;2022-12-07T02:54:16;0.80;;;0.55;;
74963;SDS011;63521;51.900;4.748;2022-12-07T03:10:35;0.60;;;0.55;;
74963;SDS011;63521;51.900;4.748;2022-12-07T03:13:05;0.63;;;0.45;;
74963;SDS011;63521;51.900;4.748;2022-12-07T03:18:21;1.13;;;0.60;;
74963;SDS011;63521;51.900;4.748;2022-12-07T03:20:48;1.75;;;0.70;;
74963;SDS011;63521;51.900;4.748;2022-12-07T03:23:16;0.75;;;0.55;;
74963;SDS011;63521;51.900;4.748;2022-12-07T03:25:52;0.70;;;0.60;;
74963;SDS011;63521;51.900;4.748;2022-12-07T03:28:19;0.77;;;0.55;;
74963;SDS011;63521;51.900;4.748;2022-12-07T03:30:54;0.70;;;0.68;;
74963;SDS011;63521;51.900;4.748;2022-12-07T03:33:23;0.75;;;0.60;;
74963;SDS011;63521;51.900;4.748;2022-12-07T03:36:01;0.90;;;0.60;;
74963;SDS011;63521;51.900;4.748;2022-12-07T03:38:48;0.43;;;0.43;;
74963;SDS011;63521;51.900;4.748;2022-12-07T03:41:23;1.17;;;0.50;;
74963;SDS011;63521;51.900;4.748;2022-12-07T03:43:50;0.80;;;0.38;;
74963;SDS011;63521;51.900;4.748;2022-12-07T03:51:49;0.85;;;0.50;;
74963;SDS011;63521;51.900;4.748;2022-12-07T03:54:21;1.10;;;0.50;;
74963;SDS011;63521;51.900;4.748;2022-12-07T03:56:50;0.55;;;0.35;;
74963;SDS011;63521;51.900;4.748;2022-12-07T03:59:16;2.03;;;0.60;;
74963;SDS011;63521;51.900;4.748;2022-12-07T04:01:45;0.52;;;0.40;;
74963;SDS011;63521;51.900;4.748;2022-12-07T04:04:17;0.50;;;0.50;;
74963;SDS011;63521;51.900;4.748;2022-12-07T04:06:42;2.65;;;0.63;;
74963;SDS011;63521;51.900;4.748;2022-12-07T04:09:08;1.15;;;0.60;;
74963;SDS011;63521;51.900;4.748;2022-12-07T04:11:33;0.43;;;0.43;;
74963;SDS011;63521;51.900;4.748;2022-12-07T04:13:58;0.40;;;0.40;;
74963;SDS011;63521;51.900;4.748;2022-12-07T04:16:42;1.42;;;0.60;;
74963;SDS011;63521;51.900;4.748;2022-12-07T04:19:08;1.10;;;0.50;;
74963;SDS011;63521;51.900;4.748;2022-12-07T04:21:33;0.60;;;0.57;;
74963;SDS011;63521;51.900;4.748;2022-12-07T04:23:59;0.50;;;0.50;;
74963;SDS011;63521;51.900;4.748;2022-12-07T04:26:24;1.27;;;0.40;;
74963;SDS011;63521;51.900;4.748;2022-12-07T04:28:49;0.63;;;0.30;;
74963;SDS011;63521;51.900;4.748;2022-12-07T04:31:15;1.25;;;0.50;;
74963;SDS011;63521;51.900;4.748;2022-12-07T04:33:40;0.57;;;0.50;;
74963;SDS011;63521;51.900;4.748;2022-12-07T04:36:05;0.45;;;0.40;;
74963;SDS011;63521;51.900;4.748;2022-12-07T04:38:31;0.70;;;0.30;;
74963;SDS011;63521;51.900;4.748;2022-12-07T04:40:57;0.65;;;0.38;;
74963;SDS011;63521;51.900;4.748;2022-12-07T04:43:23;0.40;;;0.40;;
74963;SDS011;63521;51.900;4.748;2022-12-07T04:45:48;0.63;;;0.50;;
74963;SDS011;63521;51.900;4.748;2022-12-07T04:48:14;1.00;;;0.55;;
74963;SDS011;63521;51.900;4.748;2022-12-07T04:50:39;1.52;;;0.47;;
74963;SDS011;63521;51.900;4.748;2022-12-07T04:53:05;0.55;;;0.30;;
74963;SDS011;63521;51.900;4.748;2022-12-07T04:55:30;0.32;;;0.32;;
74963;SDS011;63521;51.900;4.748;2022-12-07T04:57:55;0.50;;;0.40;;
74963;SDS011;63521;51.900;4.748;2022-12-07T05:00:21;0.43;;;0.38;;
74963;SDS011;63521;51.900;4.748;2022-12-07T05:02:46;1.60;;;0.50;;
74963;SDS011;63521;51.900;4.748;2022-12-07T05:05:11;0.50;;;0.40;;
74963;SDS011;63521;51.900;4.748;2022-12-07T05:07:37;0.40;;;0.40;;
74963;SDS011;63521;51.900;4.748;2022-12-07T05:10:02;0.47;;;0.47;;
74963;SDS011;63521;51.900;4.748;2022-12-07T05:12:28;0.80;;;0.50;;
74963;SDS011;63521;51.900;4.748;2022-12-07T05:14:53;1.75;;;0.43;;
74963;SDS011;63521;51.900;4.748;2022-12-07T05:17:18;0.30;;;0.30;;
74963;SDS011;63521;51.900;4.748;2022-12-07T05:19:44;1.02;;;0.32;;
74963;SDS011;63521;51.900;4.748;2022-12-07T05:22:09;0.30;;;0.20;;
74963;SDS011;63521;51.900;4.748;2022-12-07T05:24:35;0.50;;;0.32;;
74963;SDS011;63521;51.900;4.748;2022-12-07T05:27:00;0.47;;;0.40;;
74963;SDS011;63521;51.900;4.748;2022-12-07T05:29:26;1.58;;;0.60;;
74963;SDS011;63521;51.900;4.748;2022-12-07T05:31:51;0.57;;;0.32;;
74963;SDS011;63521;51.900;4.748;2022-12-07T05:34:17;1.65;;;0.30;;
74963;SDS011;63521;51.900;4.748;2022-12-07T05:36:42;0.50;;;0.20;;
74963;SDS011;63521;51.900;4.748;2022-12-07T05:39:09;0.32;;;0.20;;
74963;SDS011;63521;51.900;4.748;2022-12-07T05:41:35;0.47;;;0.35;;
74963;SDS011;63521;51.900;4.748;2022-12-07T05:44:19;0.47;;;0.40;;
74963;SDS011;63521;51.900;4.748;2022-12-07T05:46:44;0.32;;;0.20;;
74963;SDS011;63521;51.900;4.748;2022-12-07T05:49:10;0.85;;;0.30;;
74963;SDS011;63521;51.900;4.748;2022-12-07T05:51:35;0.40;;;0.40;;
74963;SDS011;63521;51.900;4.748;2022-12-07T05:54:00;0.50;;;0.30;;
74963;SDS011;63521;51.900;4.748;2022-12-07T05:56:26;0.45;;;0.25;;
74963;SDS011;63521;51.900;4.748;2022-12-07T05:58:52;0.30;;;0.30;;
74963;SDS011;63521;51.900;4.748;2022-12-07T06:01:35;0.30;;;0.30;;
74963;SDS011;63521;51.900;4.748;2022-12-07T06:04:01;0.90;;;0.35;;
74963;SDS011;63521;51.900;4.748;2022-12-07T06:06:26;0.70;;;0.30;;
74963;SDS011;63521;51.900;4.748;2022-12-07T06:08:51;0.20;;;0.20;;
74963;SDS011;63521;51.900;4.748;2022-12-07T06:11:17;1.42;;;0.57;;
74963;SDS011;63521;51.900;4.748;2022-12-07T06:14:01;1.85;;;0.30;;
74963;SDS011;63521;51.900;4.748;2022-12-07T06:16:26;1.20;;;0.50;;
74963;SDS011;63521;51.900;4.748;2022-12-07T06:18:52;0.50;;;0.40;;
74963;SDS011;63521;51.900;4.748;2022-12-07T06:21:17;1.13;;;0.40;;
74963;SDS011;63521;51.900;4.748;2022-12-07T06:23:42;0.55;;;0.30;;
74963;SDS011;63521;51.900;4.748;2022-12-07T06:26:08;1.63;;;0.47;;
74963;SDS011;63521;51.900;4.748;2022-12-07T06:28:33;0.30;;;0.30;;
74963;SDS011;63521;51.900;4.748;2022-12-07T06:30:59;0.35;;;0.25;;
74963;SDS011;63521;51.900;4.748;2022-12-07T06:33:25;0.20;;;0.20;;
74963;SDS011;63521;51.900;4.748;2022-12-07T06:35:51;0.55;;;0.30;;
74963;SDS011;63521;51.900;4.748;2022-12-07T06:39:08;0.70;;;0.22;;
74963;SDS011;63521;51.900;4.748;2022-12-07T06:42:25;0.40;;;0.30;;
74963;SDS011;63521;51.900;4.748;2022-12-07T06:44:51;1.40;;;0.40;;
74963;SDS011;63521;51.900;4.748;2022-12-07T06:48:09;0.35;;;0.35;;
74963;SDS011;63521;51.900;4.748;2022-12-07T06:50:35;0.20;;;0.20;;
74963;SDS011;63521;51.900;4.748;2022-12-07T06:53:00;0.20;;;0.20;;
74963;SDS011;63521;51.900;4.748;2022-12-07T06:55:30;0.75;;;0.28;;
74963;SDS011;63521;51.900;4.748;2022-12-07T06:57:56;0.40;;;0.30;;
74963;SDS011;63521;51.900;4.748;2022-12-07T07:00:21;0.30;;;0.15;;
74963;SDS011;63521;51.900;4.748;2022-12-07T07:02:47;0.70;;;0.40;;
74963;SDS011;63521;51.900;4.748;2022-12-07T07:05:12;0.50;;;0.40;;
74963;SDS011;63521;51.900;4.748;2022-12-07T07:07:37;0.43;;;0.40;;
74963;SDS011;63521;51.900;4.748;2022-12-07T07:10:03;0.30;;;0.30;;
74963;SDS011;63521;51.900;4.748;2022-12-07T07:12:29;0.75;;;0.50;;
74963;SDS011;63521;51.900;4.748;2022-12-07T07:14:54;1.77;;;0.50;;
74963;SDS011;63521;51.900;4.748;2022-12-07T07:17:19;0.22;;;0.22;;
74963;SDS011;63521;51.900;4.748;2022-12-07T07:19:45;0.20;;;0.20;;
74963;SDS011;63521;51.900;4.748;2022-12-07T07:22:10;1.15;;;0.35;;
74963;SDS011;63521;51.900;4.748;2022-12-07T07:24:36;0.63;;;0.30;;
74963;SDS011;63521;51.900;4.748;2022-12-07T07:27:01;0.75;;;0.52;;
74963;SDS011;63521;51.900;4.748;2022-12-07T07:29:26;0.20;;;0.20;;
74963;SDS011;63521;51.900;4.748;2022-12-07T07:31:52;0.75;;;0.40;;
74963;SDS011;63521;51.900;4.748;2022-12-07T07:34:17;1.70;;;0.40;;
74963;SDS011;63521;51.900;4.748;2022-12-07T07:36:42;0.35;;;0.30;;
74963;SDS011;63521;51.900;4.748;2022-12-07T07:39:09;0.90;;;0.50;;
74963;SDS011;63521;51.900;4.748;2022-12-07T07:41:34;1.23;;;0.40;;
74963;SDS011;63521;51.900;4.748;2022-12-07T07:44:00;0.90;;;0.52;;
74963;SDS011;63521;51.900;4.748;2022-12-07T07:46:25;0.85;;;0.50;;
74963;SDS011;63521;51.900;4.748;2022-12-07T07:48:50;0.50;;;0.50;;
74963;SDS011;63521;51.900;4.748;2022-12-07T07:51:16;0.35;;;0.35;;
74963;SDS011;63521;51.900;4.748;2022-12-07T07:53:41;0.50;;;0.40;;
74963;SDS011;63521;51.900;4.748;2022-12-07T07:56:09;1.38;;;0.50;;
74963;SDS011;63521;51.900;4.748;2022-12-07T07:58:35;0.40;;;0.40;;
74963;SDS011;63521;51.900;4.748;2022-12-07T08:01:04;0.90;;;0.50;;
74963;SDS011;63521;51.900;4.748;2022-12-07T08:03:30;0.43;;;0.40;;
74963;SDS011;63521;51.900;4.748;2022-12-07T08:05:56;0.52;;;0.47;;
74963;SDS011;63521;51.900;4.748;2022-12-07T08:08:21;0.77;;;0.40;;
74963;SDS011;63521;51.900;4.748;2022-12-07T08:10:47;0.90;;;0.50;;
74963;SDS011;63521;51.900;4.748;2022-12-07T08:13:14;0.63;;;0.50;;
74963;SDS011;63521;51.900;4.748;2022-12-07T08:15:41;1.65;;;0.50;;
74963;SDS011;63521;51.900;4.748;2022-12-07T08:18:09;0.40;;;0.40;;
74963;SDS011;63521;51.900;4.748;2022-12-07T08:20:35;0.57;;;0.50;;
74963;SDS011;63521;51.900;4.748;2022-12-07T08:23:01;0.77;;;0.30;;
74963;SDS011;63521;51.900;4.748;2022-12-07T08:25:27;0.90;;;0.40;;
74963;SDS011;63521;51.900;4.748;2022-12-07T08:27:53;0.80;;;0.52;;
74963;SDS011;63521;51.900;4.748;2022-12-07T08:30:19;0.47;;;0.30;;
74963;SDS011;63521;51.900;4.748;2022-12-07T08:32:45;0.60;;;0.40;;
74963;SDS011;63521;51.900;4.748;2022-12-07T08:35:11;0.38;;;0.38;;
74963;SDS011;63521;51.900;4.748;2022-12-07T08:37:36;1.63;;;0.57;;
74963;SDS011;63521;51.900;4.748;2022-12-07T08:40:02;0.35;;;0.30;;
74963;SDS011;63521;51.900;4.748;2022-12-07T08:42:29;1.92;;;0.55;;
74963;SDS011;63521;51.900;4.748;2022-12-07T08:45:02;1.27;;;0.40;;
74963;SDS011;63521;51.900;4.748;2022-12-07T08:47:36;0.68;;;0.45;;
74963;SDS011;63521;51.900;4.748;2022-12-07T08:50:03;0.80;;;0.43;;
74963;SDS011;63521;51.900;4.748;2022-12-07T08:52:30;0.50;;;0.50;;
74963;SDS011;63521;51.900;4.748;2022-12-07T08:54:55;0.68;;;0.45;;
74963;SDS011;63521;51.900;4.748;2022-12-07T08:57:21;1.30;;;0.52;;
74963;SDS011;63521;51.900;4.748;2022-12-07T08:59:46;0.93;;;0.43;;
74963;SDS011;63521;51.900;4.748;2022-12-07T09:02:12;1.17;;;0.47;;
74963;SDS011;63521;51.900;4.748;2022-12-07T09:04:37;0.47;;;0.47;;
74963;SDS011;63521;51.900;4.748;2022-12-07T09:07:03;0.93;;;0.68;;
74963;SDS011;63521;51.900;4.748;2022-12-07T09:09:29;0.60;;;0.32;;
74963;SDS011;63521;51.900;4.748;2022-12-07T09:11:54;0.25;;;0.25;;
74963;SDS011;63521;51.900;4.748;2022-12-07T09:14:20;0.40;;;0.40;;
74963;SDS011;63521;51.900;4.748;2022-12-07T09:16:46;1.13;;;0.47;;
74963;SDS011;63521;51.900;4.748;2022-12-07T09:19:11;1.08;;;0.50;;
74963;SDS011;63521;51.900;4.748;2022-12-07T09:21:37;0.50;;;0.50;;
74963;SDS011;63521;51.900;4.748;2022-12-07T09:24:02;0.40;;;0.40;;
74963;SDS011;63521;51.900;4.748;2022-12-07T09:26:28;0.73;;;0.50;;
74963;SDS011;63521;51.900;4.748;2022-12-07T09:28:53;0.45;;;0.40;;
74963;SDS011;63521;51.900;4.748;2022-12-07T09:31:18;0.63;;;0.50;;
74963;SDS011;63521;51.900;4.748;2022-12-07T09:33:44;0.52;;;0.43;;
74963;SDS011;63521;51.900;4.748;2022-12-07T09:36:09;0.80;;;0.50;;
74963;SDS011;63521;51.900;4.748;2022-12-07T09:38:35;0.60;;;0.60;;
74963;SDS011;63521;51.900;4.748;2022-12-07T09:41:05;0.55;;;0.55;;
74963;SDS011;63521;51.900;4.748;2022-12-07T09:43:31;1.10;;;0.52;;
74963;SDS011;63521;51.900;4.748;2022-12-07T09:45:58;0.55;;;0.55;;
74963;SDS011;63521;51.900;4.748;2022-12-07T09:48:26;0.63;;;0.52;;
74963;SDS011;63521;51.900;4.748;2022-12-07T09:50:55;0.68;;;0.57;;
74963;SDS011;63521;51.900;4.748;2022-12-07T09:53:25;0.80;;;0.50;;
74963;SDS011;63521;51.900;4.748;2022-12-07T09:55:53;0.80;;;0.65;;
74963;SDS011;63521;51.900;4.748;2022-12-07T09:58:20;3.35;;;0.52;;
74963;SDS011;63521;51.900;4.748;2022-12-07T10:00:48;0.60;;;0.60;;
74963;SDS011;63521;51.900;4.748;2022-12-07T10:03:15;1.25;;;0.88;;
74963;SDS011;63521;51.900;4.748;2022-12-07T10:05:47;1.40;;;0.90;;
74963;SDS011;63521;51.900;4.748;2022-12-07T10:08:14;0.90;;;0.52;;
74963;SDS011;63521;51.900;4.748;2022-12-07T10:10:42;1.85;;;0.80;;
74963;SDS011;63521;51.900;4.748;2022-12-07T10:13:09;0.65;;;0.60;;
74963;SDS011;63521;51.900;4.748;2022-12-07T10:15:50;0.50;;;0.50;;
74963;SDS011;63521;51.900;4.748;2022-12-07T10:21:02;1.38;;;0.38;;
74963;SDS011;63521;51.900;4.748;2022-12-07T10:23:32;2.65;;;0.95;;
74963;SDS011;63521;51.900;4.748;2022-12-07T10:25:58;1.00;;;0.70;;
74963;SDS011;63521;51.900;4.748;2022-12-07T10:28:27;1.58;;;0.60;;
74963;SDS011;63521;51.900;4.748;2022-12-07T10:30:59;1.00;;;0.77;;
74963;SDS011;63521;51.900;4.748;2022-12-07T10:33:32;0.90;;;0.63;;
74963;SDS011;63521;51.900;4.748;2022-12-07T10:36:17;1.33;;;0.65;;
74963;SDS011;63521;51.900;4.748;2022-12-07T10:39:10;0.88;;;0.45;;
74963;SDS011;63521;51.900;4.748;2022-12-07T10:41:59;0.50;;;0.40;;
74963;SDS011;63521;51.900;4.748;2022-12-07T10:44:31;0.57;;;0.50;;
74963;SDS011;63521;51.900;4.748;2022-12-07T10:49:39;0.45;;;0.40;;
74963;SDS011;63521;51.900;4.748;2022-12-07T10:55:11;1.27;;;0.60;;
74963;SDS011;63521;51.900;4.748;2022-12-07T10:57:47;0.82;;;0.50;;
74963;SDS011;63521;51.900;4.748;2022-12-07T11:00:39;0.40;;;0.40;;
74963;SDS011;63521;51.900;4.748;2022-12-07T11:03:22;1.42;;;0.80;;
74963;SDS011;63521;51.900;4.748;2022-12-07T11:11:19;0.82;;;0.60;;
74963;SDS011;63521;51.900;4.748;2022-12-07T11:19:22;1.15;;;0.80;;
74963;SDS011;63521;51.900;4.748;2022-12-07T11:22:15;0.85;;;0.57;;
74963;SDS011;63521;51.900;4.748;2022-12-07T11:27:47;0.50;;;0.50;;
74963;SDS011;63521;51.900;4.748;2022-12-07T11:30:23;0.88;;;0.60;;
74963;SDS011;63521;51.900;4.748;2022-12-07T11:32:55;1.15;;;0.60;;
74963;SDS011;63521;51.900;4.748;2022-12-07T11:38:20;1.05;;;0.60;;
74963;SDS011;63521;51.900;4.748;2022-12-07T11:40:49;1.25;;;0.60;;
74963;SDS011;63521;51.900;4.748;2022-12-07T11:43:26;0.47;;;0.47;;
74963;SDS011;63521;51.900;4.748;2022-12-07T11:45:56;1.15;;;0.63;;
74963;SDS011;63521;51.900;4.748;2022-12-07T11:48:38;0.77;;;0.57;;
74963;SDS011;63521;51.900;4.748;2022-12-07T11:51:07;1.30;;;0.52;;
74963;SDS011;63521;51.900;4.748;2022-12-07T11:53:38;0.50;;;0.50;;
74963;SDS011;63521;51.900;4.748;2022-12-07T12:01:29;0.63;;;0.40;;
74963;SDS011;63521;51.900;4.748;2022-12-07T12:06:41;0.98;;;0.57;;
74963;SDS011;63521;51.900;4.748;2022-12-07T12:15:35;0.50;;;0.50;;
74963;SDS011;63521;51.900;4.748;2022-12-07T12:18:15;0.88;;;0.80;;
74963;SDS011;63521;51.900;4.748;2022-12-07T12:21:07;0.98;;;0.60;;
74963;SDS011;63521;51.900;4.748;2022-12-07T12:23:36;0.75;;;0.60;;
74963;SDS011;63521;51.900;4.748;2022-12-07T12:26:07;0.82;;;0.68;;
74963;SDS011;63521;51.900;4.748;2022-12-07T12:33:52;0.90;;;0.80;;
74963;SDS011;63521;51.900;4.748;2022-12-07T12:39:13;1.42;;;0.55;;
74963;SDS011;63521;51.900;4.748;2022-12-07T12:46:58;0.80;;;0.60;;
74963;SDS011;63521;51.900;4.748;2022-12-07T12:51:50;0.88;;;0.55;;
74963;SDS011;63521;51.900;4.748;2022-12-07T12:54:20;0.68;;;0.55;;
74963;SDS011;63521;51.900;4.748;2022-12-07T12:56:49;0.98;;;0.60;;
74963;SDS011;63521;51.900;4.748;2022-12-07T13:01:49;0.65;;;0.55;;
74963;SDS011;63521;51.900;4.748;2022-12-07T13:04:30;1.30;;;0.80;;
74963;SDS011;63521;51.900;4.748;2022-12-07T13:07:02;0.80;;;0.70;;
74963;SDS011;63521;51.900;4.748;2022-12-07T13:09:28;1.25;;;0.98;;
74963;SDS011;63521;51.900;4.748;2022-12-07T13:12:01;0.98;;;0.60;;
74963;SDS011;63521;51.900;4.748;2022-12-07T13:17:10;0.90;;;0.50;;
74963;SDS011;63521;51.900;4.748;2022-12-07T13:22:53;1.63;;;0.50;;
74963;SDS011;63521;51.900;4.748;2022-12-07T13:27:51;1.33;;;0.70;;
74963;SDS011;63521;51.900;4.748;2022-12-07T13:30:21;0.80;;;0.60;;
74963;SDS011;63521;51.900;4.748;2022-12-07T13:32:54;0.50;;;0.40;;
74963;SDS011;63521;51.900;4.748;2022-12-07T13:35:30;1.33;;;0.70;;
74963;SDS011;63521;51.900;4.748;2022-12-07T13:37:57;0.40;;;0.40;;
74963;SDS011;63521;51.900;4.748;2022-12-07T13:40:22;0.50;;;0.50;;
74963;SDS011;63521;51.900;4.748;2022-12-07T13:42:48;0.50;;;0.50;;
74963;SDS011;63521;51.900;4.748;2022-12-07T13:45:27;0.60;;;0.43;;
74963;SDS011;63521;51.900;4.748;2022-12-07T13:50:51;0.95;;;0.60;;
74963;SDS011;63521;51.900;4.748;2022-12-07T13:53:17;0.90;;;0.65;;
74963;SDS011;63521;51.900;4.748;2022-12-07T13:55:46;0.95;;;0.47;;
74963;SDS011;63521;51.900;4.748;2022-12-07T13:58:12;0.98;;;0.50;;
74963;SDS011;63521;51.900;4.748;2022-12-07T14:00:39;0.80;;;0.50;;
74963;SDS011;63521;51.900;4.748;2022-12-07T14:05:36;2.22;;;0.80;;
74963;SDS011;63521;51.900;4.748;2022-12-07T14:10:38;3.42;;;1.42;;
74963;SDS011;63521;51.900;4.748;2022-12-07T14:13:31;5.03;;;1.40;;
74963;SDS011;63521;51.900;4.748;2022-12-07T14:16:01;2.45;;;1.10;;
74963;SDS011;63521;51.900;4.748;2022-12-07T14:18:29;6.43;;;1.77;;
74963;SDS011;63521;51.900;4.748;2022-12-07T14:21:18;6.35;;;1.25;;
74963;SDS011;63521;51.900;4.748;2022-12-07T14:24:01;2.80;;;1.15;;
74963;SDS011;63521;51.900;4.748;2022-12-07T14:26:40;4.10;;;1.40;;
74963;SDS011;63521;51.900;4.748;2022-12-07T14:31:49;7.65;;;1.65;;
74963;SDS011;63521;51.900;4.748;2022-12-07T14:34:15;2.63;;;1.23;;
74963;SDS011;63521;51.900;4.748;2022-12-07T14:36:41;4.95;;;1.40;;
74963;SDS011;63521;51.900;4.748;2022-12-07T14:39:06;2.92;;;1.08;;
74963;SDS011;63521;51.900;4.748;2022-12-07T14:41:31;2.35;;;1.20;;
74963;SDS011;63521;51.900;4.748;2022-12-07T14:44:15;1.50;;;1.17;;
74963;SDS011;63521;51.900;4.748;2022-12-07T14:46:41;4.25;;;1.60;;
74963;SDS011;63521;51.900;4.748;2022-12-07T14:49:06;3.17;;;1.02;;
74963;SDS011;63521;51.900;4.748;2022-12-07T14:51:32;2.00;;;1.00;;
74963;SDS011;63521;51.900;4.748;2022-12-07T14:53:58;4.70;;;1.83;;
74963;SDS011;63521;51.900;4.748;2022-12-07T14:56:24;4.28;;;1.40;;
74963;SDS011;63521;51.900;4.748;2022-12-07T14:58:50;5.82;;;1.02;;
74963;SDS011;63521;51.900;4.748;2022-12-07T15:01:15;1.02;;;0.98;;
74963;SDS011;63521;51.900;4.748;2022-12-07T15:03:40;1.75;;;1.25;;
74963;SDS011;63521;51.900;4.748;2022-12-07T15:06:06;2.28;;;0.98;;
74963;SDS011;63521;51.900;4.748;2022-12-07T15:08:32;3.20;;;1.10;;
74963;SDS011;63521;51.900;4.748;2022-12-07T15:10:58;1.33;;;1.08;;
74963;SDS011;63521;51.900;4.748;2022-12-07T15:13:23;4.47;;;1.35;;
74963;SDS011;63521;51.900;4.748;2022-12-07T15:16:09;1.30;;;1.08;;
74963;SDS011;63521;51.900;4.748;2022-12-07T15:18:36;1.75;;;1.10;;
74963;SDS011;63521;51.900;4.748;2022-12-07T15:21:01;3.22;;;1.00;;
74963;SDS011;63521;51.900;4.748;2022-12-07T15:23:27;1.67;;;0.90;;
74963;SDS011;63521;51.900;4.748;2022-12-07T15:25:52;1.50;;;0.85;;
74963;SDS011;63521;51.900;4.748;2022-12-07T15:28:18;1.33;;;1.00;;
74963;SDS011;63521;51.900;4.748;2022-12-07T15:30:44;2.08;;;1.10;;
74963;SDS011;63521;51.900;4.748;2022-12-07T15:33:10;1.92;;;1.00;;
74963;SDS011;63521;51.900;4.748;2022-12-07T15:35:39;1.67;;;1.00;;
74963;SDS011;63521;51.900;4.748;2022-12-07T15:38:05;2.95;;;1.08;;
74963;SDS011;63521;51.900;4.748;2022-12-07T15:40:31;1.13;;;0.98;;
74963;SDS011;63521;51.900;4.748;2022-12-07T15:42:56;1.55;;;0.82;;
74963;SDS011;63521;51.900;4.748;2022-12-07T15:45:22;1.95;;;0.90;;
74963;SDS011;63521;51.900;4.748;2022-12-07T15:47:47;1.85;;;1.02;;
74963;SDS011;63521;51.900;4.748;2022-12-07T15:50:14;1.23;;;0.80;;
74963;SDS011;63521;51.900;4.748;2022-12-07T15:52:41;2.67;;;0.90;;
74963;SDS011;63521;51.900;4.748;2022-12-07T15:55:06;1.95;;;0.70;;
74963;SDS011;63521;51.900;4.748;2022-12-07T15:57:33;1.48;;;1.00;;
74963;SDS011;63521;51.900;4.748;2022-12-07T15:59:59;4.15;;;1.30;;
74963;SDS011;63521;51.900;4.748;2022-12-07T16:02:25;2.78;;;1.02;;
74963;SDS011;63521;51.900;4.748;2022-12-07T16:04:51;1.65;;;0.88;;
74963;SDS011;63521;51.900;4.748;2022-12-07T16:07:16;1.67;;;0.95;;
74963;SDS011;63521;51.900;4.748;2022-12-07T16:09:43;2.28;;;0.90;;
74963;SDS011;63521;51.900;4.748;2022-12-07T16:12:09;3.63;;;0.93;;
74963;SDS011;63521;51.900;4.748;2022-12-07T16:14:35;1.10;;;0.90;;
74963;SDS011;63521;51.900;4.748;2022-12-07T16:17:00;0.77;;;0.77;;
74963;SDS011;63521;51.900;4.748;2022-12-07T16:19:26;1.35;;;0.85;;
74963;SDS011;63521;51.900;4.748;2022-12-07T16:21:51;1.35;;;0.93;;
74963;SDS011;63521;51.900;4.748;2022-12-07T16:24:17;2.42;;;0.80;;
74963;SDS011;63521;51.900;4.748;2022-12-07T16:26:43;0.95;;;0.90;;
74963;SDS011;63521;51.900;4.748;2022-12-07T16:29:12;1.73;;;0.98;;
74963;SDS011;63521;51.900;4.748;2022-12-07T16:31:38;2.15;;;1.00;;
74963;SDS011;63521;51.900;4.748;2022-12-07T16:34:03;1.92;;;0.90;;
74963;SDS011;63521;51.900;4.748;2022-12-07T16:36:29;2.47;;;1.15;;
74963;SDS011;63521;51.900;4.748;2022-12-07T16:38:54;2.08;;;1.10;;
74963;SDS011;63521;51.900;4.748;2022-12-07T16:41:20;1.40;;;0.80;;
74963;SDS011;63521;51.900;4.748;2022-12-07T16:43:45;1.10;;;0.90;;
74963;SDS011;63521;51.900;4.748;2022-12-07T16:46:11;1.65;;;1.00;;
74963;SDS011;63521;51.900;4.748;2022-12-07T16:48:37;1.10;;;1.00;;
74963;SDS011;63521;51.900;4.748;2022-12-07T16:51:07;1.85;;;0.90;;